createdAt,value
2018-10-02T00:00:21.372Z,976.17
2018-10-02T00:01:21.583Z,976.12
2018-10-02T00:02:21.471Z,976.16
2018-10-02T00:03:21.515Z,976.13
2018-10-02T00:04:21.560Z,976.16
2018-10-02T00:05:21.605Z,976.18
2018-10-02T00:06:21.714Z,976.19
2018-10-02T00:07:21.721Z,976.19
2018-10-02T00:08:21.759Z,976.20
2018-10-02T00:09:21.782Z,976.20
2018-10-02T00:10:21.830Z,976.19
2018-10-02T00:11:21.872Z,976.23
2018-10-02T00:12:21.923Z,976.23
2018-10-02T00:13:21.983Z,976.22
2018-10-02T00:14:22.027Z,976.19
2018-10-02T00:15:22.055Z,976.21
2018-10-02T00:16:22.105Z,976.19
2018-10-02T00:17:22.146Z,976.20
2018-10-02T00:18:22.215Z,976.22
2018-10-02T00:19:22.260Z,976.23
2018-10-02T00:20:22.317Z,976.26
2018-10-02T00:21:22.327Z,976.26
2018-10-02T00:22:22.376Z,976.26
2018-10-02T00:23:23.150Z,976.25
2018-10-02T00:24:22.589Z,976.26
2018-10-02T00:25:22.531Z,976.23
2018-10-02T00:26:22.556Z,976.22
2018-10-02T00:27:22.605Z,976.28
2018-10-02T00:28:22.649Z,976.28
2018-10-02T00:29:22.730Z,976.28
2018-10-02T00:30:22.737Z,976.26
2018-10-02T00:31:22.840Z,976.29
2018-10-02T00:32:22.923Z,976.29
2018-10-02T00:33:22.874Z,976.27
2018-10-02T00:34:22.943Z,976.25
2018-10-02T00:35:22.974Z,976.23
2018-10-02T00:36:23.046Z,976.28
2018-10-02T00:37:23.062Z,976.24
2018-10-02T00:38:23.104Z,976.28
2018-10-02T00:39:23.150Z,976.28
2018-10-02T00:40:23.222Z,976.36
2018-10-02T00:41:23.264Z,976.34
2018-10-02T00:42:23.297Z,976.35
2018-10-02T00:43:23.334Z,976.36
2018-10-02T00:44:23.376Z,976.36
2018-10-02T00:45:23.425Z,976.41
2018-10-02T00:46:23.499Z,976.36
2018-10-02T00:47:23.512Z,976.39
2018-10-02T00:48:23.561Z,976.36
2018-10-02T00:49:23.603Z,976.35
2018-10-02T00:50:23.658Z,976.40
2018-10-02T00:51:23.711Z,976.42
2018-10-02T00:52:23.750Z,976.45
2018-10-02T00:53:23.793Z,976.42
2018-10-02T00:54:23.832Z,976.42
2018-10-02T00:55:23.878Z,976.43
2018-10-02T00:56:23.947Z,976.41
2018-10-02T00:57:23.967Z,976.37
2018-10-02T00:58:24.033Z,976.37
2018-10-02T00:59:24.060Z,976.35
2018-10-02T01:00:24.105Z,976.33
2018-10-02T01:01:24.150Z,976.31
2018-10-02T01:02:24.198Z,976.28
2018-10-02T01:03:24.258Z,976.26
2018-10-02T01:04:24.287Z,976.26
2018-10-02T01:05:24.335Z,976.26
2018-10-02T01:06:24.376Z,976.26
2018-10-02T01:07:24.424Z,976.26
2018-10-02T01:08:24.508Z,976.28
2018-10-02T01:09:24.519Z,976.26
2018-10-02T01:10:24.557Z,976.22
2018-10-02T01:11:24.644Z,976.23
2018-10-02T01:12:24.650Z,976.21
2018-10-02T01:13:24.721Z,976.23
2018-10-02T01:14:24.740Z,976.22
2018-10-02T01:15:24.788Z,976.18
2018-10-02T01:16:24.832Z,976.19
2018-10-02T01:17:24.878Z,976.16
2018-10-02T01:18:24.944Z,976.17
2018-10-02T01:19:24.995Z,976.17
2018-10-02T01:20:25.012Z,976.17
2018-10-02T01:21:25.064Z,976.11
2018-10-02T01:22:25.104Z,976.14
2018-10-02T01:23:25.179Z,976.12
2018-10-02T01:24:25.210Z,976.12
2018-10-02T01:25:25.242Z,976.13
2018-10-02T01:26:25.281Z,976.16
2018-10-02T01:27:25.339Z,976.16
2018-10-02T01:28:25.400Z,976.12
2018-10-02T01:29:25.425Z,976.16
2018-10-02T01:30:25.466Z,976.20
2018-10-02T01:31:25.528Z,976.16
2018-10-02T01:32:25.582Z,976.21
2018-10-02T01:33:25.600Z,976.19
2018-10-02T01:34:25.640Z,976.19
2018-10-02T01:35:25.687Z,976.18
2018-10-02T01:36:25.743Z,976.21
2018-10-02T01:37:25.795Z,976.20
2018-10-02T01:38:25.824Z,976.21
2018-10-02T01:39:25.868Z,976.19
2018-10-02T01:40:25.918Z,976.19
2018-10-02T01:41:25.979Z,976.19
2018-10-02T01:42:26.008Z,976.18
2018-10-02T01:43:26.049Z,976.22
2018-10-02T01:44:26.091Z,976.17
2018-10-02T01:45:26.152Z,976.18
2018-10-02T01:46:26.181Z,976.20
2018-10-02T01:47:26.235Z,976.20
2018-10-02T01:48:26.292Z,976.22
2018-10-02T01:49:26.313Z,976.20
2018-10-02T01:50:26.364Z,976.25
2018-10-02T01:51:26.404Z,976.25
2018-10-02T01:52:26.450Z,976.27
2018-10-02T01:53:26.529Z,976.28
2018-10-02T01:54:26.595Z,976.26
2018-10-02T01:55:26.610Z,976.26
2018-10-02T01:56:26.636Z,976.26
2018-10-02T01:57:26.684Z,976.26
2018-10-02T01:58:26.720Z,976.30
2018-10-02T01:59:26.762Z,976.30
2018-10-02T02:00:27.188Z,976.30
2018-10-02T02:01:26.937Z,976.26
2018-10-02T02:02:26.898Z,976.26
2018-10-02T02:03:26.947Z,976.24
2018-10-02T02:04:26.984Z,976.23
2018-10-02T02:05:27.055Z,976.21
2018-10-02T02:06:27.078Z,976.22
2018-10-02T02:07:27.123Z,976.26
2018-10-02T02:08:27.166Z,976.24
2018-10-02T02:09:27.218Z,976.21
2018-10-02T02:10:27.271Z,976.27
2018-10-02T02:11:27.319Z,976.18
2018-10-02T02:12:27.344Z,976.23
2018-10-02T02:13:27.397Z,976.24
2018-10-02T02:14:27.440Z,976.25
2018-10-02T02:15:27.480Z,976.25
2018-10-02T02:16:27.563Z,976.26
2018-10-02T02:17:27.646Z,976.24
2018-10-02T02:18:27.612Z,976.22
2018-10-02T02:19:27.663Z,976.23
2018-10-02T02:20:27.703Z,976.22
2018-10-02T02:21:27.788Z,976.19
2018-10-02T02:22:27.792Z,976.22
2018-10-02T02:23:27.843Z,976.25
2018-10-02T02:24:27.907Z,976.22
2018-10-02T02:25:27.929Z,976.24
2018-10-02T02:26:28.002Z,976.22
2018-10-02T02:27:28.020Z,976.19
2018-10-02T02:28:28.064Z,976.19
2018-10-02T02:29:28.107Z,976.15
2018-10-02T02:30:28.160Z,976.21
2018-10-02T02:31:28.293Z,976.18
2018-10-02T02:32:28.242Z,976.17
2018-10-02T02:33:28.293Z,976.19
2018-10-02T02:34:28.337Z,976.18
2018-10-02T02:35:28.378Z,976.17
2018-10-02T02:36:28.453Z,976.18
2018-10-02T02:37:28.467Z,976.20
2018-10-02T02:38:28.575Z,976.16
2018-10-02T02:39:28.563Z,976.16
2018-10-02T02:40:28.607Z,976.16
2018-10-02T02:41:28.674Z,976.16
2018-10-02T02:42:28.692Z,976.16
2018-10-02T02:43:28.750Z,976.13
2018-10-02T02:44:28.814Z,976.16
2018-10-02T02:45:28.846Z,976.16
2018-10-02T02:46:28.878Z,976.25
2018-10-02T02:47:28.938Z,976.24
2018-10-02T02:48:28.963Z,976.27
2018-10-02T02:49:29.036Z,976.31
2018-10-02T02:50:29.056Z,976.32
2018-10-02T02:51:29.102Z,976.31
2018-10-02T02:52:29.207Z,976.33
2018-10-02T02:53:29.189Z,976.36
2018-10-02T02:54:29.259Z,976.38
2018-10-02T02:55:29.288Z,976.37
2018-10-02T02:56:29.326Z,976.39
2018-10-02T02:57:29.371Z,976.39
2018-10-02T02:58:29.423Z,976.41
2018-10-02T02:59:29.492Z,976.48
2018-10-02T03:00:29.510Z,976.49
2018-10-02T03:01:29.562Z,976.48
2018-10-02T03:02:29.599Z,976.50
2018-10-02T03:03:29.640Z,976.52
2018-10-02T03:04:29.722Z,976.54
2018-10-02T03:05:29.736Z,976.57
2018-10-02T03:06:29.776Z,976.58
2018-10-02T03:07:29.829Z,976.58
2018-10-02T03:08:29.874Z,976.65
2018-10-02T03:09:29.937Z,976.62
2018-10-02T03:10:29.995Z,976.66
2018-10-02T03:11:30.003Z,976.60
2018-10-02T03:12:30.071Z,976.62
2018-10-02T03:13:30.100Z,976.58
2018-10-02T03:14:30.139Z,976.55
2018-10-02T03:15:30.320Z,976.56
2018-10-02T03:16:30.230Z,976.54
2018-10-02T03:17:30.276Z,976.56
2018-10-02T03:18:30.345Z,976.56
2018-10-02T03:19:30.370Z,976.61
2018-10-02T03:20:30.430Z,976.62
2018-10-02T03:21:30.453Z,976.60
2018-10-02T03:22:30.498Z,976.64
2018-10-02T03:23:30.565Z,976.63
2018-10-02T03:24:30.592Z,976.63
2018-10-02T03:25:30.655Z,976.66
2018-10-02T03:26:30.682Z,976.69
2018-10-02T03:27:30.742Z,976.70
2018-10-02T03:28:30.767Z,976.73
2018-10-02T03:29:30.819Z,976.68
2018-10-02T03:30:30.863Z,976.66
2018-10-02T03:31:30.904Z,976.62
2018-10-02T03:32:30.982Z,976.63
2018-10-02T03:33:30.996Z,976.66
2018-10-02T03:34:31.043Z,976.64
2018-10-02T03:35:31.083Z,976.66
2018-10-02T03:36:31.132Z,976.65
2018-10-02T03:37:31.199Z,976.62
2018-10-02T03:38:31.223Z,976.63
2018-10-02T03:39:31.323Z,976.59
2018-10-02T03:40:31.313Z,976.59
2018-10-02T03:41:31.357Z,976.61
2018-10-02T03:42:31.415Z,976.66
2018-10-02T03:43:31.465Z,976.63
2018-10-02T03:44:31.491Z,976.65
2018-10-02T03:45:31.532Z,976.61
2018-10-02T03:46:31.579Z,976.64
2018-10-02T03:47:31.672Z,976.67
2018-10-02T03:48:31.692Z,976.66
2018-10-02T03:49:31.729Z,976.70
2018-10-02T03:50:31.772Z,976.67
2018-10-02T03:51:31.802Z,976.65
2018-10-02T03:52:31.864Z,976.69
2018-10-02T03:53:31.930Z,976.72
2018-10-02T03:54:31.984Z,976.69
2018-10-02T03:55:31.991Z,976.69
2018-10-02T03:56:32.066Z,976.71
2018-10-02T03:57:32.072Z,976.70
2018-10-02T03:58:32.120Z,976.72
2018-10-02T03:59:32.163Z,976.74
2018-10-02T04:00:32.243Z,976.73
2018-10-02T04:01:32.285Z,976.71
2018-10-02T04:02:32.336Z,976.67
2018-10-02T04:03:32.348Z,976.74
2018-10-02T04:04:32.409Z,976.68
2018-10-02T04:05:32.443Z,976.63
2018-10-02T04:06:32.480Z,976.64
2018-10-02T04:07:32.528Z,976.65
2018-10-02T04:08:32.571Z,976.67
2018-10-02T04:09:32.634Z,976.71
2018-10-02T04:10:32.693Z,976.79
2018-10-02T04:11:32.708Z,976.78
2018-10-02T04:12:32.751Z,976.77
2018-10-02T04:13:32.803Z,976.78
2018-10-02T04:14:32.839Z,976.76
2018-10-02T04:15:32.905Z,976.79
2018-10-02T04:16:32.955Z,976.81
2018-10-02T04:17:32.985Z,976.73
2018-10-02T04:18:33.020Z,976.74
2018-10-02T04:19:33.073Z,976.72
2018-10-02T04:20:33.111Z,976.68
2018-10-02T04:21:33.178Z,976.69
2018-10-02T04:22:33.201Z,976.69
2018-10-02T04:23:33.300Z,976.73
2018-10-02T04:24:33.853Z,976.71
2018-10-02T04:25:33.336Z,976.73
2018-10-02T04:26:33.399Z,976.74
2018-10-02T04:27:33.428Z,976.77
2018-10-02T04:28:33.484Z,976.76
2018-10-02T04:29:33.515Z,976.79
2018-10-02T04:30:33.560Z,976.82
2018-10-02T04:31:33.699Z,976.85
2018-10-02T04:32:33.668Z,976.82
2018-10-02T04:33:33.774Z,976.83
2018-10-02T04:34:33.751Z,976.81
2018-10-02T04:35:33.784Z,976.80
2018-10-02T04:36:33.831Z,976.81
2018-10-02T04:37:33.910Z,976.81
2018-10-02T04:38:34.182Z,976.80
2018-10-02T04:39:33.978Z,976.80
2018-10-02T04:40:34.012Z,976.81
2018-10-02T04:41:34.057Z,976.76
2018-10-02T04:42:34.137Z,976.76
2018-10-02T04:43:34.147Z,976.73
2018-10-02T04:44:34.191Z,976.78
2018-10-02T04:45:34.245Z,976.79
2018-10-02T04:46:34.291Z,976.76
2018-10-02T04:47:34.362Z,976.81
2018-10-02T04:48:34.375Z,976.81
2018-10-02T04:49:34.419Z,976.85
2018-10-02T04:50:34.460Z,976.86
2018-10-02T04:51:34.532Z,976.88
2018-10-02T04:52:34.551Z,976.90
2018-10-02T04:53:34.607Z,976.89
2018-10-02T04:54:34.641Z,976.93
2018-10-02T04:55:34.725Z,976.94
2018-10-02T04:56:34.732Z,976.93
2018-10-02T04:57:34.784Z,976.93
2018-10-02T04:58:34.845Z,976.91
2018-10-02T04:59:34.879Z,976.97
2018-10-02T05:00:34.910Z,976.94
2018-10-02T05:01:34.997Z,976.96
2018-10-02T05:02:35.009Z,976.98
2018-10-02T05:03:35.196Z,976.96
2018-10-02T05:04:35.092Z,976.98
2018-10-02T05:05:35.136Z,976.98
2018-10-02T05:06:35.198Z,976.99
2018-10-02T05:07:35.230Z,977.02
2018-10-02T05:08:35.285Z,976.99
2018-10-02T05:09:35.315Z,977.01
2018-10-02T05:10:35.360Z,977.05
2018-10-02T05:11:35.432Z,977.05
2018-10-02T05:12:35.449Z,977.03
2018-10-02T05:13:35.496Z,977.03
2018-10-02T05:14:35.566Z,977.05
2018-10-02T05:15:35.592Z,977.05
2018-10-02T05:16:35.649Z,977.05
2018-10-02T05:17:35.673Z,977.05
2018-10-02T05:18:35.726Z,977.05
2018-10-02T05:19:35.769Z,977.08
2018-10-02T05:20:35.843Z,977.07
2018-10-02T05:21:35.891Z,977.04
2018-10-02T05:22:35.899Z,977.07
2018-10-02T05:23:35.947Z,977.13
2018-10-02T05:24:35.992Z,977.16
2018-10-02T05:25:36.035Z,977.15
2018-10-02T05:26:36.104Z,977.22
2018-10-02T05:27:36.143Z,977.17
2018-10-02T05:28:36.177Z,977.23
2018-10-02T05:29:36.214Z,977.22
2018-10-02T05:30:36.254Z,977.21
2018-10-02T05:31:36.369Z,977.24
2018-10-02T05:32:36.856Z,977.27
2018-10-02T05:33:36.887Z,977.28
2018-10-02T05:34:36.436Z,977.32
2018-10-02T05:35:36.531Z,977.30
2018-10-02T05:36:36.547Z,977.32
2018-10-02T05:37:36.571Z,977.37
2018-10-02T05:38:36.639Z,977.36
2018-10-02T05:39:36.669Z,977.37
2018-10-02T05:40:36.707Z,977.38
2018-10-02T05:41:36.754Z,977.40
2018-10-02T05:42:36.806Z,977.35
2018-10-02T05:43:36.864Z,977.40
2018-10-02T05:44:36.892Z,977.41
2018-10-02T05:45:36.950Z,977.39
2018-10-02T05:46:36.999Z,977.38
2018-10-02T05:47:37.056Z,977.37
2018-10-02T05:48:37.105Z,977.35
2018-10-02T05:49:37.121Z,977.38
2018-10-02T05:50:37.215Z,977.35
2018-10-02T05:51:37.202Z,977.35
2018-10-02T05:52:37.251Z,977.40
2018-10-02T05:53:37.315Z,977.36
2018-10-02T05:54:37.360Z,977.38
2018-10-02T05:55:37.385Z,977.41
2018-10-02T05:56:37.438Z,977.39
2018-10-02T05:57:37.481Z,977.38
2018-10-02T05:58:37.553Z,977.37
2018-10-02T05:59:37.564Z,977.38
2018-10-02T06:00:37.608Z,977.32
2018-10-02T06:01:37.652Z,977.37
2018-10-02T06:02:37.699Z,977.37
2018-10-02T06:03:38.008Z,977.33
2018-10-02T06:04:37.789Z,977.39
2018-10-02T06:05:37.833Z,977.38
2018-10-02T06:06:37.878Z,977.37
2018-10-02T06:07:37.943Z,977.34
2018-10-02T06:08:37.993Z,977.32
2018-10-02T06:09:38.014Z,977.32
2018-10-02T06:10:38.065Z,977.33
2018-10-02T06:11:38.141Z,977.33
2018-10-02T06:12:38.150Z,977.33
2018-10-02T06:13:38.209Z,977.30
2018-10-02T06:14:38.273Z,977.34
2018-10-02T06:15:38.314Z,977.36
2018-10-02T06:16:38.343Z,977.42
2018-10-02T06:17:38.383Z,977.44
2018-10-02T06:18:38.427Z,977.44
2018-10-02T06:19:38.469Z,977.44
2018-10-02T06:20:38.537Z,977.42
2018-10-02T06:21:38.583Z,977.46
2018-10-02T06:22:38.606Z,977.48
2018-10-02T06:23:38.652Z,977.50
2018-10-02T06:24:38.787Z,977.51
2018-10-02T06:25:38.749Z,977.51
2018-10-02T06:26:38.816Z,977.52
2018-10-02T06:27:38.832Z,977.49
2018-10-02T06:28:38.875Z,977.52
2018-10-02T06:29:38.920Z,977.56
2018-10-02T06:30:38.965Z,977.59
2018-10-02T06:31:39.097Z,977.60
2018-10-02T06:32:39.107Z,977.59
2018-10-02T06:33:39.131Z,977.60
2018-10-02T06:34:39.147Z,977.60
2018-10-02T06:35:39.196Z,977.64
2018-10-02T06:36:39.303Z,977.63
2018-10-02T06:37:39.288Z,977.62
2018-10-02T06:38:39.493Z,977.63
2018-10-02T06:39:39.379Z,977.63
2018-10-02T06:40:39.431Z,977.63
2018-10-02T06:41:39.464Z,977.63
2018-10-02T06:42:39.532Z,977.66
2018-10-02T06:43:39.640Z,977.65
2018-10-02T06:44:39.634Z,977.70
2018-10-02T06:45:39.666Z,977.67
2018-10-02T06:46:39.698Z,977.70
2018-10-02T06:47:39.761Z,977.70
2018-10-02T06:48:39.784Z,977.71
2018-10-02T06:49:39.852Z,977.68
2018-10-02T06:50:39.933Z,977.68
2018-10-02T06:51:39.989Z,977.67
2018-10-02T06:52:40.221Z,977.68
2018-10-02T06:53:40.014Z,977.65
2018-10-02T06:54:40.096Z,977.64
2018-10-02T06:55:40.103Z,977.68
2018-10-02T06:56:40.234Z,977.71
2018-10-02T06:57:40.210Z,977.72
2018-10-02T06:58:40.243Z,977.76
2018-10-02T06:59:40.328Z,977.71
2018-10-02T07:00:40.443Z,977.73
2018-10-02T07:01:40.381Z,977.68
2018-10-02T07:02:40.659Z,977.73
2018-10-02T07:03:40.471Z,977.75
2018-10-02T07:04:40.537Z,977.77
2018-10-02T07:05:40.565Z,977.79
2018-10-02T07:06:40.621Z,977.82
2018-10-02T07:07:40.654Z,977.86
2018-10-02T07:08:40.803Z,977.86
2018-10-02T07:09:40.795Z,977.88
2018-10-02T07:10:40.800Z,977.87
2018-10-02T07:11:40.858Z,977.87
2018-10-02T07:12:40.923Z,977.86
2018-10-02T07:13:40.951Z,977.89
2018-10-02T07:14:41.101Z,977.90
2018-10-02T07:15:41.032Z,977.95
2018-10-02T07:16:41.090Z,977.96
2018-10-02T07:17:41.147Z,978.00
2018-10-02T07:18:41.162Z,978.01
2018-10-02T07:19:41.211Z,977.99
2018-10-02T07:20:41.332Z,977.99
2018-10-02T07:21:41.321Z,977.95
2018-10-02T07:22:41.384Z,978.04
2018-10-02T07:23:41.400Z,978.03
2018-10-02T07:24:41.444Z,978.08
2018-10-02T07:25:41.489Z,978.10
2018-10-02T07:26:41.616Z,978.05
2018-10-02T07:27:41.678Z,978.06
2018-10-02T07:28:41.629Z,978.07
2018-10-02T07:29:41.759Z,978.13
2018-10-02T07:30:41.774Z,978.12
2018-10-02T07:31:41.762Z,978.10
2018-10-02T07:32:41.858Z,978.13
2018-10-02T07:33:41.867Z,978.14
2018-10-02T07:34:41.918Z,978.15
2018-10-02T07:35:41.953Z,978.22
2018-10-02T07:36:42.176Z,978.23
2018-10-02T07:37:42.066Z,978.27
2018-10-02T07:38:42.198Z,978.24
2018-10-02T07:39:42.157Z,978.26
2018-10-02T07:40:42.183Z,978.25
2018-10-02T07:41:42.277Z,978.21
2018-10-02T07:42:42.278Z,978.22
2018-10-02T07:43:42.484Z,978.18
2018-10-02T07:44:42.397Z,978.19
2018-10-02T07:45:42.419Z,978.15
2018-10-02T07:46:42.488Z,978.11
2018-10-02T07:47:42.552Z,978.14
2018-10-02T07:48:42.580Z,978.12
2018-10-02T07:49:42.607Z,978.18
2018-10-02T07:50:42.763Z,978.21
2018-10-02T07:51:42.702Z,978.23
2018-10-02T07:52:42.778Z,978.25
2018-10-02T07:53:42.821Z,978.28
2018-10-02T07:54:42.843Z,978.34
2018-10-02T07:55:42.909Z,978.39
2018-10-02T07:56:43.000Z,978.42
2018-10-02T07:57:42.986Z,978.35
2018-10-02T07:58:43.032Z,978.35
2018-10-02T07:59:43.197Z,978.28
2018-10-02T08:00:43.146Z,978.29
2018-10-02T08:01:43.179Z,978.27
2018-10-02T08:02:43.236Z,978.28
2018-10-02T08:03:43.277Z,978.27
2018-10-02T08:04:43.358Z,978.26
2018-10-02T08:05:43.648Z,978.26
2018-10-02T08:06:43.428Z,978.28
2018-10-02T08:07:43.470Z,978.29
2018-10-02T08:08:43.576Z,978.26
2018-10-02T08:09:43.571Z,978.28
2018-10-02T08:10:43.674Z,978.29
2018-10-02T08:11:43.819Z,978.28
2018-10-02T08:12:43.721Z,978.26
2018-10-02T08:13:43.816Z,978.28
2018-10-02T08:14:43.842Z,978.27
2018-10-02T08:15:44.212Z,978.24
2018-10-02T08:16:43.924Z,978.22
2018-10-02T08:17:43.970Z,978.27
2018-10-02T08:18:44.025Z,978.32
2018-10-02T08:19:44.101Z,978.34
2018-10-02T08:20:44.254Z,978.39
2018-10-02T08:21:44.420Z,978.35
2018-10-02T08:22:44.218Z,978.40
2018-10-02T08:23:44.319Z,978.38
2018-10-02T08:24:44.303Z,978.33
2018-10-02T08:25:44.365Z,978.31
2018-10-02T08:26:44.484Z,978.37
2018-10-02T08:27:44.470Z,978.35
2018-10-02T08:28:44.510Z,978.41
2018-10-02T08:29:44.568Z,978.41
2018-10-02T08:30:44.613Z,978.44
2018-10-02T08:31:44.691Z,978.42
2018-10-02T08:32:44.800Z,978.37
2018-10-02T08:33:44.759Z,978.35
2018-10-02T08:34:44.809Z,978.38
2018-10-02T08:35:44.891Z,978.42
2018-10-02T08:36:44.905Z,978.33
2018-10-02T08:37:44.974Z,978.36
2018-10-02T08:38:45.050Z,978.35
2018-10-02T08:39:45.066Z,978.34
2018-10-02T08:40:45.123Z,978.32
2018-10-02T08:41:45.233Z,978.35
2018-10-02T08:42:45.231Z,978.33
2018-10-02T08:43:45.302Z,978.32
2018-10-02T08:44:45.370Z,978.34
2018-10-02T08:45:45.362Z,978.33
2018-10-02T08:46:45.412Z,978.39
2018-10-02T08:47:45.493Z,978.44
2018-10-02T08:48:45.537Z,978.39
2018-10-02T08:49:45.580Z,978.38
2018-10-02T08:50:45.627Z,978.38
2018-10-02T08:51:45.682Z,978.38
2018-10-02T08:52:45.720Z,978.34
2018-10-02T08:53:45.830Z,978.32
2018-10-02T08:54:45.844Z,978.32
2018-10-02T08:55:45.875Z,978.39
2018-10-02T08:56:45.943Z,978.39
2018-10-02T08:57:45.983Z,978.40
2018-10-02T08:58:46.052Z,978.43
2018-10-02T08:59:46.072Z,978.41
2018-10-02T09:00:46.160Z,978.41
2018-10-02T09:01:46.201Z,978.41
2018-10-02T09:02:46.227Z,978.36
2018-10-02T09:03:46.309Z,978.37
2018-10-02T09:04:46.333Z,978.36
2018-10-02T09:05:46.411Z,978.35
2018-10-02T09:06:46.478Z,978.38
2018-10-02T09:07:46.490Z,978.38
2018-10-02T09:08:46.535Z,978.42
2018-10-02T09:09:46.648Z,978.46
2018-10-02T09:10:46.683Z,978.44
2018-10-02T09:11:46.691Z,978.46
2018-10-02T09:12:46.748Z,978.45
2018-10-02T09:13:46.855Z,978.40
2018-10-02T09:14:46.836Z,978.41
2018-10-02T09:15:46.939Z,978.41
2018-10-02T09:16:47.045Z,978.37
2018-10-02T09:17:47.014Z,978.35
2018-10-02T09:18:47.089Z,978.39
2018-10-02T09:19:47.100Z,978.36
2018-10-02T09:20:47.215Z,978.34
2018-10-02T09:21:47.241Z,978.28
2018-10-02T09:22:47.241Z,978.25
2018-10-02T09:23:47.338Z,978.25
2018-10-02T09:24:47.366Z,978.23
2018-10-02T09:25:47.419Z,978.24
2018-10-02T09:26:47.469Z,978.27
2018-10-02T09:27:47.577Z,978.25
2018-10-02T09:28:47.581Z,978.23
2018-10-02T09:29:47.601Z,978.29
2018-10-02T09:30:47.772Z,978.30
2018-10-02T09:31:47.730Z,978.27
2018-10-02T09:32:47.766Z,978.25
2018-10-02T09:33:47.826Z,978.24
2018-10-02T09:34:47.856Z,978.21
2018-10-02T09:35:47.983Z,978.20
2018-10-02T09:36:48.029Z,978.20
2018-10-02T09:37:48.019Z,978.19
2018-10-02T09:38:48.097Z,978.20
2018-10-02T09:39:48.180Z,978.24
2018-10-02T09:40:48.166Z,978.25
2018-10-02T09:41:48.220Z,978.30
2018-10-02T09:42:48.315Z,978.33
2018-10-02T09:43:48.325Z,978.36
2018-10-02T09:44:48.372Z,978.35
2018-10-02T09:45:48.481Z,978.32
2018-10-02T09:46:48.489Z,978.34
2018-10-02T09:47:48.549Z,978.36
2018-10-02T09:48:48.623Z,978.33
2018-10-02T09:49:48.691Z,978.35
2018-10-02T09:50:48.724Z,978.31
2018-10-02T09:51:48.796Z,978.32
2018-10-02T09:52:48.786Z,978.23
2018-10-02T09:53:48.837Z,978.29
2018-10-02T09:54:48.949Z,978.26
2018-10-02T09:55:48.947Z,978.31
2018-10-02T09:56:49.112Z,978.26
2018-10-02T09:57:49.068Z,978.29
2018-10-02T09:58:49.097Z,978.26
2018-10-02T09:59:49.152Z,978.25
2018-10-02T10:00:49.233Z,978.26
2018-10-02T10:01:49.253Z,978.28
2018-10-02T10:02:49.332Z,978.27
2018-10-02T10:03:49.353Z,978.30
2018-10-02T10:04:49.424Z,978.27
2018-10-02T10:05:49.458Z,978.29
2018-10-02T10:06:49.509Z,978.23
2018-10-02T10:07:49.648Z,978.21
2018-10-02T10:08:49.618Z,978.20
2018-10-02T10:09:49.671Z,978.18
2018-10-02T10:10:49.745Z,978.21
2018-10-02T10:11:49.811Z,978.23
2018-10-02T10:12:49.823Z,978.22
2018-10-02T10:13:49.889Z,978.22
2018-10-02T10:14:49.922Z,978.21
2018-10-02T10:15:49.976Z,978.21
2018-10-02T10:16:50.189Z,978.22
2018-10-02T10:17:50.082Z,978.23
2018-10-02T10:18:50.132Z,978.25
2018-10-02T10:19:50.195Z,978.29
2018-10-02T10:20:50.253Z,978.33
2018-10-02T10:21:50.286Z,978.32
2018-10-02T10:22:50.399Z,978.30
2018-10-02T10:23:50.414Z,978.36
2018-10-02T10:24:50.451Z,978.35
2018-10-02T10:25:50.498Z,978.36
2018-10-02T10:26:50.569Z,978.35
2018-10-02T10:27:50.598Z,978.32
2018-10-02T10:28:50.665Z,978.29
2018-10-02T10:29:50.709Z,978.28
2018-10-02T10:30:50.751Z,978.26
2018-10-02T10:31:50.833Z,978.28
2018-10-02T10:32:50.865Z,978.29
2018-10-02T10:33:50.929Z,978.32
2018-10-02T10:34:51.029Z,978.33
2018-10-02T10:35:51.012Z,978.32
2018-10-02T10:36:51.073Z,978.34
2018-10-02T10:37:51.145Z,978.32
2018-10-02T10:38:51.197Z,978.28
2018-10-02T10:39:51.278Z,978.29
2018-10-02T10:40:51.314Z,978.23
2018-10-02T10:41:51.325Z,978.27
2018-10-02T10:42:51.379Z,978.26
2018-10-02T10:43:51.439Z,978.26
2018-10-02T10:44:51.499Z,978.25
2018-10-02T10:45:51.560Z,978.21
2018-10-02T10:46:51.610Z,978.22
2018-10-02T10:47:51.640Z,978.23
2018-10-02T10:48:51.708Z,978.20
2018-10-02T10:49:51.743Z,978.12
2018-10-02T10:50:51.789Z,978.10
2018-10-02T10:51:51.861Z,978.13
2018-10-02T10:52:51.918Z,978.10
2018-10-02T10:53:51.977Z,978.09
2018-10-02T10:54:51.993Z,978.12
2018-10-02T10:55:52.057Z,978.10
2018-10-02T10:56:52.133Z,978.08
2018-10-02T10:57:52.159Z,978.14
2018-10-02T10:58:52.248Z,978.13
2018-10-02T10:59:52.254Z,978.15
2018-10-02T11:00:52.330Z,978.15
2018-10-02T11:01:52.357Z,978.15
2018-10-02T11:02:52.476Z,978.18
2018-10-02T11:03:52.461Z,978.16
2018-10-02T11:04:52.518Z,978.14
2018-10-02T11:05:52.607Z,978.13
2018-10-02T11:06:52.618Z,978.15
2018-10-02T11:07:52.668Z,978.12
2018-10-02T11:08:52.731Z,978.11
2018-10-02T11:09:52.775Z,978.09
2018-10-02T11:10:52.853Z,978.07
2018-10-02T11:11:52.876Z,978.13
2018-10-02T11:12:52.959Z,978.11
2018-10-02T11:13:53.047Z,978.10
2018-10-02T11:14:53.033Z,978.16
2018-10-02T11:15:53.085Z,978.20
2018-10-02T11:16:53.159Z,978.18
2018-10-02T11:17:53.191Z,978.21
2018-10-02T11:18:53.275Z,978.17
2018-10-02T11:19:53.332Z,978.08
2018-10-02T11:20:53.348Z,978.09
2018-10-02T11:21:53.397Z,978.08
2018-10-02T11:22:53.479Z,978.09
2018-10-02T11:23:53.566Z,978.04
2018-10-02T11:24:53.554Z,978.02
2018-10-02T11:25:53.639Z,977.96
2018-10-02T11:26:53.661Z,977.90
2018-10-02T11:27:53.748Z,977.91
2018-10-02T11:28:53.806Z,977.92
2018-10-02T11:29:53.879Z,977.93
2018-10-02T11:30:53.881Z,977.96
2018-10-02T11:31:53.919Z,977.91
2018-10-02T11:32:53.997Z,977.93
2018-10-02T11:33:54.051Z,977.92
2018-10-02T11:34:54.072Z,977.88
2018-10-02T11:35:54.130Z,977.87
2018-10-02T11:36:54.182Z,977.84
2018-10-02T11:37:54.243Z,977.86
2018-10-02T11:38:54.305Z,977.83
2018-10-02T11:39:54.339Z,977.81
2018-10-02T11:40:54.400Z,977.76
2018-10-02T11:41:54.440Z,977.81
2018-10-02T11:42:54.497Z,977.79
2018-10-02T11:43:54.601Z,977.81
2018-10-02T11:44:54.851Z,977.83
2018-10-02T11:45:54.652Z,977.81
2018-10-02T11:46:54.707Z,977.78
2018-10-02T11:47:54.780Z,977.70
2018-10-02T11:48:54.799Z,977.67
2018-10-02T11:49:55.049Z,977.68
2018-10-02T11:50:54.987Z,977.60
2018-10-02T11:51:55.028Z,977.62
2018-10-02T11:52:55.012Z,977.61
2018-10-02T11:53:55.059Z,977.58
2018-10-02T11:54:55.133Z,977.56
2018-10-02T11:55:55.217Z,977.54
2018-10-02T11:56:55.219Z,977.51
2018-10-02T11:57:55.267Z,977.55
2018-10-02T11:58:55.330Z,977.52
2018-10-02T11:59:55.364Z,977.60
2018-10-02T12:00:55.476Z,977.58
2018-10-02T12:01:55.938Z,977.58
2018-10-02T12:02:55.518Z,977.57
2018-10-02T12:03:55.576Z,977.56
2018-10-02T12:04:55.624Z,977.55
2018-10-02T12:05:55.746Z,977.53
2018-10-02T12:06:55.724Z,977.50
2018-10-02T12:07:55.793Z,977.53
2018-10-02T12:08:55.914Z,977.55
2018-10-02T12:09:55.883Z,977.52
2018-10-02T12:10:55.959Z,977.52
2018-10-02T12:11:55.978Z,977.51
2018-10-02T12:12:56.102Z,977.50
2018-10-02T12:13:56.129Z,977.46
2018-10-02T12:14:56.220Z,977.46
2018-10-02T12:15:56.206Z,977.43
2018-10-02T12:16:56.281Z,977.39
2018-10-02T12:17:56.944Z,977.35
2018-10-02T12:18:56.354Z,977.30
2018-10-02T12:19:56.493Z,977.27
2018-10-02T12:20:56.460Z,977.28
2018-10-02T12:21:56.543Z,977.30
2018-10-02T12:22:56.550Z,977.29
2018-10-02T12:23:56.601Z,977.30
2018-10-02T12:24:56.665Z,977.28
2018-10-02T12:25:56.703Z,977.28
2018-10-02T12:26:56.783Z,977.29
2018-10-02T12:27:56.812Z,977.26
2018-10-02T12:28:56.859Z,977.24